Time;durP1;ratioP1;P1;durP2;ratioP2;P2;SDS_P1;SDS_P2;PMS_P1;PMS_P2;Temp;Humidity;BMP_temperature;BMP_pressure;BME280_temperature;BME280_humidity;BME280_pressure;Samples;Min_cycle;Max_cycle;Signal;HPM_P1;HPM_P2
2021/07/08 00:01:04;;;;;;;2.50;2.30;;;24.80;58.30;;;;;;4892998;28;88008;-17
2021/07/08 00:03:30;;;;;;;2.53;2.08;;;24.80;58.20;;;;;;4874340;28;91065;-17
2021/07/08 00:05:55;;;;;;;3.47;2.50;;;24.80;58.20;;;;;;4893203;28;87961;-20
2021/07/08 00:08:21;;;;;;;2.65;2.38;;;24.80;58.30;;;;;;4892637;28;87537;-19
2021/07/08 00:10:52;;;;;;;3.53;2.35;;;24.80;58.30;;;;;;4891860;28;89650;-17
2021/07/08 00:13:20;;;;;;;3.45;2.80;;;24.80;58.30;;;;;;4893168;28;87868;-19
2021/07/08 00:15:46;;;;;;;2.42;2.22;;;24.80;58.30;;;;;;4891517;28;91327;-17
2021/07/08 00:18:12;;;;;;;2.33;1.90;;;24.80;58.40;;;;;;4893018;28;89166;-17
2021/07/08 00:20:40;;;;;;;2.53;2.33;;;24.80;58.40;;;;;;4892659;28;87831;-17
2021/07/08 00:23:05;;;;;;;3.30;2.33;;;24.80;58.40;;;;;;4892385;28;88501;-18
2021/07/08 00:25:32;;;;;;;3.38;2.53;;;24.80;58.40;;;;;;4892797;28;89058;-17
2021/07/08 00:27:58;;;;;;;3.90;2.55;;;24.80;58.40;;;;;;4893233;28;88240;-17
2021/07/08 00:30:24;;;;;;;2.97;2.03;;;24.80;58.40;;;;;;4892523;28;88407;-20
2021/07/08 00:32:51;;;;;;;2.08;1.90;;;24.80;58.40;;;;;;4893157;28;88188;-17
2021/07/08 00:35:17;;;;;;;2.30;2.10;;;24.70;58.40;;;;;;4893484;28;87919;-17
2021/07/08 00:37:43;;;;;;;2.55;2.35;;;24.70;58.40;;;;;;4893294;28;87915;-17
2021/07/08 00:40:11;;;;;;;2.80;2.10;;;24.70;58.40;;;;;;4874623;28;89381;-18
2021/07/08 00:42:38;;;;;;;2.47;2.00;;;24.80;58.50;;;;;;4890809;28;90742;-22
2021/07/08 00:45:07;;;;;;;2.53;2.10;;;24.70;58.50;;;;;;4890517;28;92365;-18
2021/07/08 00:47:33;;;;;;;3.03;2.30;;;24.70;58.50;;;;;;4874463;28;87647;-18
2021/07/08 00:49:58;;;;;;;2.50;2.25;;;24.70;58.50;;;;;;4874370;28;88390;-17
2021/07/08 00:52:24;;;;;;;2.60;2.40;;;24.70;58.50;;;;;;4891786;28;89311;-17
2021/07/08 00:54:49;;;;;;;3.03;2.45;;;24.70;58.50;;;;;;4892961;28;88272;-17
2021/07/08 00:57:15;;;;;;;2.85;2.55;;;24.70;58.50;;;;;;4892490;28;87277;-17
2021/07/08 00:59:46;;;;;;;3.22;2.25;;;24.70;58.60;;;;;;4892955;28;87283;-17
2021/07/08 01:02:13;;;;;;;2.30;2.10;;;24.70;58.50;;;;;;4891197;28;89337;-18
2021/07/08 01:04:46;;;;;;;2.53;2.10;;;24.70;58.50;;;;;;4891046;28;89049;-17
2021/07/08 01:07:14;;;;;;;3.80;2.22;;;24.70;58.60;;;;;;4891068;28;88766;-18
2021/07/08 01:09:40;;;;;;;2.28;2.08;;;24.70;58.60;;;;;;4891920;28;88200;-20
2021/07/08 01:12:07;;;;;;;3.05;2.53;;;24.70;58.60;;;;;;4892523;28;88894;-17
2021/07/08 01:14:33;;;;;;;2.22;2.05;;;24.70;58.60;;;;;;4892569;28;88479;-17
2021/07/08 01:16:59;;;;;;;2.88;2.10;;;24.70;58.60;;;;;;4896534;28;87188;-17
2021/07/08 01:19:26;;;;;;;2.30;2.10;;;24.70;58.60;;;;;;4895726;28;87984;-17
2021/07/08 01:21:52;;;;;;;2.50;2.30;;;24.70;58.70;;;;;;4896035;28;87564;-17
2021/07/08 01:24:18;;;;;;;2.85;2.25;;;24.70;58.70;;;;;;4896205;28;87504;-18
2021/07/08 01:26:44;;;;;;;2.40;2.20;;;24.70;58.70;;;;;;4894671;28;88038;-17
2021/07/08 01:29:10;;;;;;;2.70;2.30;;;24.70;58.70;;;;;;4894817;28;88045;-18
2021/07/08 01:31:36;;;;;;;3.72;2.15;;;24.60;58.70;;;;;;4894441;28;89130;-17
2021/07/08 01:34:02;;;;;;;3.28;1.90;;;24.70;58.70;;;;;;4894658;28;88815;-17
2021/07/08 01:36:27;;;;;;;2.97;2.60;;;24.60;58.70;;;;;;4895766;28;87193;-17
2021/07/08 01:38:53;;;;;;;2.75;2.40;;;24.60;58.70;;;;;;4895014;28;87183;-18
2021/07/08 01:41:19;;;;;;;2.85;2.38;;;24.60;58.80;;;;;;4895494;28;87607;-17
2021/07/08 01:43:44;;;;;;;2.63;2.17;;;24.60;58.80;;;;;;4893246;28;89230;-17
2021/07/08 01:46:15;;;;;;;3.42;2.45;;;24.60;58.80;;;;;;4896018;28;87441;-17
2021/07/08 01:48:42;;;;;;;2.80;2.30;;;24.60;58.80;;;;;;4895914;28;86631;-17
2021/07/08 01:51:23;;;;;;;2.67;2.47;;;24.60;58.80;;;;;;4895570;28;88359;-17
2021/07/08 01:53:49;;;;;;;3.03;2.53;;;24.60;58.80;;;;;;4894994;28;87910;-18
2021/07/08 01:56:14;;;;;;;2.53;2.33;;;24.60;58.80;;;;;;4894203;28;88774;-17
2021/07/08 01:58:40;;;;;;;3.65;2.40;;;24.60;58.90;;;;;;4894102;28;88403;-16
2021/07/08 02:01:06;;;;;;;2.38;2.17;;;24.60;58.90;;;;;;4895166;28;87854;-17
2021/07/08 02:03:32;;;;;;;3.00;2.40;;;24.60;58.90;;;;;;4877337;28;89497;-17
2021/07/08 02:05:58;;;;;;;2.28;2.08;;;24.60;58.90;;;;;;4895249;28;87300;-17
2021/07/08 02:08:23;;;;;;;2.55;2.22;;;24.60;58.90;;;;;;4894955;28;88344;-17
2021/07/08 02:10:49;;;;;;;2.50;2.30;;;24.60;58.90;;;;;;4895098;28;88251;-17
2021/07/08 02:13:15;;;;;;;2.85;2.33;;;24.60;59.00;;;;;;4895692;28;87883;-15
2021/07/08 02:15:40;;;;;;;2.53;2.33;;;24.60;59.00;;;;;;4895171;28;87927;-17
2021/07/08 02:18:06;;;;;;;2.25;2.05;;;24.60;59.00;;;;;;4895168;28;88310;-22
2021/07/08 02:20:32;;;;;;;3.35;2.25;;;24.60;59.00;;;;;;4893956;28;89751;-17
2021/07/08 02:22:58;;;;;;;2.35;2.15;;;24.60;59.00;;;;;;4894845;28;88365;-17
2021/07/08 02:25:24;;;;;;;2.25;2.08;;;24.50;59.00;;;;;;4894747;28;87550;-17
2021/07/08 02:27:49;;;;;;;2.35;2.15;;;24.60;59.00;;;;;;4892734;28;88123;-17
2021/07/08 02:30:20;;;;;;;2.42;2.13;;;24.50;59.00;;;;;;4893139;28;88268;-17
2021/07/08 02:32:52;;;;;;;2.13;1.92;;;24.60;59.10;;;;;;4893503;28;88240;-18
2021/07/08 02:35:18;;;;;;;2.55;2.35;;;24.60;59.10;;;;;;4894126;28;88742;-17
2021/07/08 02:37:44;;;;;;;2.45;2.25;;;24.50;59.00;;;;;;4894112;28;86959;-18
2021/07/08 02:40:13;;;;;;;2.65;2.10;;;24.60;59.10;;;;;;4893735;28;88412;-17
2021/07/08 02:42:40;;;;;;;2.55;2.35;;;24.50;59.10;;;;;;4893868;28;88466;-17
2021/07/08 02:45:07;;;;;;;2.40;2.20;;;24.50;59.10;;;;;;4893422;28;88258;-17
2021/07/08 02:47:33;;;;;;;2.70;2.33;;;24.60;59.10;;;;;;4893585;28;87674;-18
2021/07/08 02:49:59;;;;;;;2.60;2.40;;;24.50;59.20;;;;;;4893931;28;88019;-17
2021/07/08 02:52:25;;;;;;;2.50;2.30;;;24.50;59.20;;;;;;4893483;28;87610;-19
2021/07/08 02:54:50;;;;;;;2.20;2.03;;;24.50;59.30;;;;;;4893937;28;87853;-17
2021/07/08 02:57:16;;;;;;;2.60;2.40;;;24.50;59.30;;;;;;4893634;28;87220;-17
2021/07/08 02:59:41;;;;;;;2.25;2.05;;;24.50;59.40;;;;;;4894329;28;87549;-18
2021/07/08 03:02:07;;;;;;;3.20;2.33;;;24.40;59.40;;;;;;4894142;28;87930;-21
2021/07/08 03:04:32;;;;;;;2.47;2.22;;;24.40;59.50;;;;;;4894339;28;88178;-20
2021/07/08 03:06:58;;;;;;;2.22;2.03;;;24.40;59.50;;;;;;4893013;28;88084;-17
2021/07/08 03:09:24;;;;;;;2.97;2.30;;;24.40;59.60;;;;;;4892532;28;88640;-22
2021/07/08 03:11:49;;;;;;;2.33;2.13;;;24.40;59.60;;;;;;4893600;28;88834;-17
2021/07/08 03:14:15;;;;;;;2.55;2.35;;;24.40;59.60;;;;;;4893826;28;88123;-17
2021/07/08 03:16:41;;;;;;;2.80;2.38;;;24.40;59.60;;;;;;4894693;28;87803;-18
2021/07/08 03:19:06;;;;;;;2.00;1.90;;;24.40;59.60;;;;;;4894169;28;88969;-19
2021/07/08 03:21:32;;;;;;;2.42;2.22;;;24.40;59.70;;;;;;4893857;28;88331;-20
2021/07/08 03:23:58;;;;;;;2.50;2.30;;;24.40;59.70;;;;;;4894399;28;88252;-17
2021/07/08 03:26:23;;;;;;;2.60;2.28;;;24.40;59.80;;;;;;4894214;28;87232;-18
2021/07/08 03:28:49;;;;;;;2.97;2.13;;;24.30;59.70;;;;;;4894545;28;88112;-16
2021/07/08 03:31:15;;;;;;;2.70;2.50;;;24.30;59.80;;;;;;4893732;28;88480;-17
2021/07/08 03:33:40;;;;;;;2.40;2.20;;;24.30;59.70;;;;;;4893218;28;88027;-17
2021/07/08 03:36:06;;;;;;;2.42;2.22;;;24.40;59.80;;;;;;4893066;28;87501;-17
2021/07/08 03:38:32;;;;;;;2.63;2.10;;;24.30;59.70;;;;;;4893298;28;88304;-21
2021/07/08 03:40:58;;;;;;;4.70;2.75;;;24.30;59.70;;;;;;4893887;28;88029;-17
2021/07/08 03:43:23;;;;;;;2.30;2.10;;;24.40;59.70;;;;;;4893750;28;87994;-17
2021/07/08 03:45:49;;;;;;;2.55;2.35;;;24.30;59.70;;;;;;4894144;28;88215;-17
2021/07/08 03:48:15;;;;;;;2.90;2.60;;;24.40;59.70;;;;;;4893620;28;88210;-17
2021/07/08 03:50:41;;;;;;;2.45;2.25;;;24.30;59.60;;;;;;4893321;28;87563;-17
2021/07/08 03:53:06;;;;;;;2.35;2.15;;;24.40;59.70;;;;;;4892552;28;87711;-17
2021/07/08 03:55:32;;;;;;;2.33;2.13;;;24.40;59.60;;;;;;4892469;28;87258;-17
2021/07/08 03:57:58;;;;;;;2.55;2.17;;;24.40;59.60;;;;;;4892618;28;89133;-17
2021/07/08 04:00:29;;;;;;;2.28;2.08;;;24.40;59.60;;;;;;4892177;28;88668;-19
2021/07/08 04:02:57;;;;;;;2.45;2.25;;;24.40;59.60;;;;;;4892497;28;88788;-17
2021/07/08 04:05:23;;;;;;;2.20;2.00;;;24.40;59.60;;;;;;4892750;28;88506;-17
2021/07/08 04:07:48;;;;;;;3.95;2.22;;;24.40;59.60;;;;;;4893242;28;88152;-17
2021/07/08 04:10:14;;;;;;;2.50;2.30;;;24.40;59.60;;;;;;4893084;28;87645;-17
2021/07/08 04:12:40;;;;;;;2.22;2.03;;;24.40;59.60;;;;;;4893121;28;87236;-18
2021/07/08 04:15:06;;;;;;;2.17;1.98;;;24.40;59.60;;;;;;4894036;28;87259;-17
2021/07/08 04:17:31;;;;;;;2.55;2.35;;;24.40;59.70;;;;;;4893345;28;88115;-17
2021/07/08 04:19:57;;;;;;;2.20;2.00;;;24.40;59.70;;;;;;4893024;28;88587;-18
2021/07/08 04:22:24;;;;;;;2.55;2.35;;;24.40;59.70;;;;;;4892866;28;88572;-18
2021/07/08 04:24:50;;;;;;;2.33;2.13;;;24.40;59.70;;;;;;4890558;28;88352;-19
2021/07/08 04:27:16;;;;;;;2.30;2.10;;;24.30;59.70;;;;;;4875208;28;89831;-17
2021/07/08 04:29:42;;;;;;;2.45;2.25;;;24.40;59.70;;;;;;4892076;28;87845;-17
2021/07/08 04:32:07;;;;;;;1.92;1.83;;;24.40;59.70;;;;;;4891680;28;88360;-19
2021/07/08 04:34:33;;;;;;;2.50;2.30;;;24.30;59.70;;;;;;4892167;28;87842;-17
2021/07/08 04:37:00;;;;;;;2.42;2.22;;;24.40;59.70;;;;;;4875069;28;89771;-19
2021/07/08 04:39:26;;;;;;;2.40;2.20;;;24.30;59.70;;;;;;4893090;28;87947;-18
2021/07/08 04:41:52;;;;;;;2.67;2.40;;;24.30;59.70;;;;;;4892183;28;88193;-19
2021/07/08 04:44:17;;;;;;;2.22;2.03;;;24.40;59.80;;;;;;4891782;28;87460;-21
2021/07/08 04:46:43;;;;;;;2.40;2.20;;;24.30;59.70;;;;;;4892681;28;88992;-17
2021/07/08 04:49:08;;;;;;;2.33;2.13;;;24.40;59.80;;;;;;4892173;28;88634;-17
2021/07/08 04:51:37;;;;;;;2.45;2.25;;;24.30;59.70;;;;;;4892471;28;88210;-19
2021/07/08 04:54:03;;;;;;;2.72;2.15;;;24.40;59.70;;;;;;4892209;28;87655;-17
2021/07/08 04:56:29;;;;;;;2.30;2.10;;;24.40;59.70;;;;;;4892697;28;87776;-17
2021/07/08 04:58:54;;;;;;;1.83;1.73;;;24.40;59.70;;;;;;4891025;28;89111;-17
2021/07/08 05:01:20;;;;;;;2.40;2.20;;;24.40;59.60;;;;;;4892038;28;88202;-19
2021/07/08 05:03:48;;;;;;;2.30;2.13;;;24.40;59.70;;;;;;4892527;28;87244;-17
2021/07/08 05:06:14;;;;;;;2.40;2.10;;;24.40;59.70;;;;;;4892699;28;89831;-17
2021/07/08 05:08:41;;;;;;;2.13;1.98;;;24.40;59.70;;;;;;4892401;28;87427;-17
2021/07/08 05:11:07;;;;;;;2.22;2.03;;;24.50;59.80;;;;;;4892235;28;89455;-20
2021/07/08 05:13:33;;;;;;;2.05;1.92;;;24.50;59.80;;;;;;4892079;28;88125;-17
2021/07/08 05:15:59;;;;;;;2.13;1.92;;;24.50;59.80;;;;;;4892530;28;88271;-17
2021/07/08 05:18:24;;;;;;;2.13;1.98;;;24.50;59.70;;;;;;4892849;28;87527;-17
2021/07/08 05:20:53;;;;;;;2.85;1.92;;;24.50;59.70;;;;;;4892965;28;87203;-17
2021/07/08 05:23:21;;;;;;;1.83;1.73;;;24.60;59.70;;;;;;4892012;28;88442;-17
2021/07/08 05:25:48;;;;;;;2.35;2.10;;;24.60;59.60;;;;;;4892227;28;88193;-17
2021/07/08 05:28:14;;;;;;;2.15;1.95;;;24.60;59.60;;;;;;4892615;28;87786;-19
2021/07/08 05:30:40;;;;;;;2.60;2.20;;;24.70;59.70;;;;;;4892796;28;87617;-17
2021/07/08 05:33:06;;;;;;;2.30;2.10;;;24.60;59.70;;;;;;4892253;28;87116;-17
2021/07/08 05:35:31;;;;;;;2.10;2.00;;;24.60;59.80;;;;;;4891230;28;89343;-17
2021/07/08 05:37:57;;;;;;;2.97;2.15;;;24.60;60.00;;;;;;4891402;28;88789;-17
2021/07/08 05:40:23;;;;;;;12.73;3.67;;;24.60;60.00;;;;;;4891956;28;87995;-18
2021/07/08 05:42:50;;;;;;;21.13;5.90;;;24.60;60.10;;;;;;4892148;28;87924;-17
2021/07/08 05:45:16;;;;;;;18.88;5.00;;;24.60;60.20;;;;;;4952926;22;88943;-11
2021/07/08 05:47:42;;;;;;;18.92;5.50;;;24.60;60.20;;;;;;4931404;28;87646;-15
2021/07/08 05:50:08;;;;;;;12.52;4.47;;;24.50;60.10;;;;;;4930731;28;88282;-15
2021/07/08 05:52:34;;;;;;;13.95;5.05;;;24.60;60.20;;;;;;4928541;28;90122;-19
2021/07/08 05:55:00;;;;;;;12.82;4.50;;;24.60;60.20;;;;;;4930125;28;88166;-11
2021/07/08 05:57:25;;;;;;;17.90;4.63;;;24.60;60.40;;;;;;4927533;28;89700;-11
2021/07/08 05:59:51;;;;;;;11.10;4.07;;;24.60;60.70;;;;;;4929635;28;88595;-11
2021/07/08 06:02:16;;;;;;;10.80;3.72;;;24.60;60.50;;;;;;4930870;28;88056;-14
2021/07/08 06:04:42;;;;;;;12.40;3.70;;;24.60;60.20;;;;;;4946777;28;88161;-15
2021/07/08 06:07:08;;;;;;;10.38;3.63;;;24.60;60.00;;;;;;4947239;28;88669;-12
2021/07/08 06:09:34;;;;;;;7.60;3.13;;;24.60;59.70;;;;;;4935656;28;88202;-19
2021/07/08 06:12:00;;;;;;;12.55;3.92;;;24.70;59.70;;;;;;4932407;28;87529;-11
2021/07/08 06:14:25;;;;;;;8.85;3.53;;;24.70;59.80;;;;;;4910270;28;88171;-12
2021/07/08 06:16:51;;;;;;;10.13;3.50;;;24.70;59.70;;;;;;4944189;28;87403;-12
2021/07/08 06:19:17;;;;;;;8.45;2.97;;;24.70;59.50;;;;;;4932037;28;87743;-13
2021/07/08 06:21:42;;;;;;;9.80;3.25;;;24.80;59.60;;;;;;4933146;28;88273;-19
2021/07/08 06:24:08;;;;;;;11.23;3.70;;;24.80;59.50;;;;;;4949772;28;90343;-17
2021/07/08 06:26:35;;;;;;;9.98;3.55;;;24.70;59.50;;;;;;4950746;28;90940;-14
2021/07/08 06:29:00;;;;;;;12.95;3.38;;;24.70;59.40;;;;;;4952960;28;88392;-11
2021/07/08 06:31:26;;;;;;;8.85;3.15;;;24.70;59.40;;;;;;4951940;28;88169;-12
2021/07/08 06:33:51;;;;;;;8.75;3.03;;;24.70;59.20;;;;;;4951913;28;89470;-14
2021/07/08 06:36:17;;;;;;;11.50;3.50;;;24.80;59.70;;;;;;4950222;28;89323;-20
2021/07/08 06:38:43;;;;;;;5.90;2.90;;;24.80;58.90;;;;;;4952462;28;87151;-16
2021/07/08 06:41:08;;;;;;;10.20;3.35;;;24.80;58.80;;;;;;4951898;28;88189;-17
2021/07/08 06:43:34;;;;;;;9.32;2.90;;;24.80;58.90;;;;;;4951825;28;87733;-21
2021/07/08 06:45:59;;;;;;;9.35;3.38;;;24.80;59.00;;;;;;4952553;28;87229;-14
2021/07/08 06:48:25;;;;;;;11.15;2.92;;;24.70;59.00;;;;;;4951433;28;88960;-18
2021/07/08 06:50:51;;;;;;;8.73;3.25;;;24.70;59.00;;;;;;4952114;28;87957;-13
2021/07/08 06:53:16;;;;;;;7.68;3.47;;;24.70;59.20;;;;;;4945454;28;87698;-13
2021/07/08 06:55:42;;;;;;;19.50;4.13;;;24.70;59.50;;;;;;4933070;28;88174;-21
2021/07/08 06:58:07;;;;;;;9.60;3.70;;;24.60;59.60;;;;;;4933012;28;87693;-12
2021/07/08 07:00:38;;;;;;;9.90;3.03;;;24.70;60.00;;;;;;4933479;28;87121;-17
2021/07/08 07:03:05;;;;;;;19.23;4.03;;;24.60;60.00;;;;;;4933317;28;88139;-21
2021/07/08 07:05:32;;;;;;;11.30;3.08;;;24.60;60.70;;;;;;4933353;28;87759;-11
2021/07/08 07:07:58;;;;;;;11.43;3.38;;;24.60;60.60;;;;;;4931580;28;88489;-18
2021/07/08 07:10:25;;;;;;;7.95;3.30;;;24.50;60.60;;;;;;4932364;28;87818;-16
2021/07/08 07:12:53;;;;;;;13.27;3.55;;;24.60;60.90;;;;;;4931941;28;88650;-13
2021/07/08 07:15:21;;;;;;;7.38;2.92;;;24.60;60.90;;;;;;4931934;28;88050;-19
2021/07/08 07:17:47;;;;;;;10.85;2.90;;;24.50;61.10;;;;;;4933449;28;87967;-13
2021/07/08 07:20:15;;;;;;;14.25;3.90;;;24.50;61.10;;;;;;4938898;28;87702;-12
2021/07/08 07:22:45;;;;;;;10.07;3.70;;;24.50;61.60;;;;;;4951926;28;89967;-13
2021/07/08 07:25:12;;;;;;;11.70;3.40;;;24.50;61.60;;;;;;4950909;28;91098;-13
2021/07/08 07:27:37;;;;;;;19.20;3.60;;;24.50;61.60;;;;;;4950854;28;88153;-20
2021/07/08 07:30:05;;;;;;;15.25;3.92;;;24.50;61.70;;;;;;4952397;28;87216;-18
2021/07/08 07:32:34;;;;;;;12.80;3.22;;;24.50;61.70;;;;;;4951905;28;88390;-13
2021/07/08 07:35:00;;;;;;;10.05;2.85;;;24.50;61.70;;;;;;4952230;28;87564;-12
2021/07/08 07:37:26;;;;;;;7.70;3.10;;;24.50;61.70;;;;;;4950022;28;89088;-13
2021/07/08 07:39:52;;;;;;;9.40;3.47;;;24.50;61.70;;;;;;4951788;28;87373;-19
2021/07/08 07:42:19;;;;;;;11.15;3.10;;;24.60;61.80;;;;;;4951908;28;87985;-13
2021/07/08 07:44:47;;;;;;;11.93;3.20;;;24.50;61.70;;;;;;4950925;28;88403;-15
2021/07/08 07:47:13;;;;;;;9.18;3.20;;;24.60;61.90;;;;;;4951256;28;87976;-14
2021/07/08 07:49:39;;;;;;;11.27;3.25;;;24.50;62.10;;;;;;4950218;28;87137;-13
2021/07/08 07:52:15;;;;;;;15.25;3.60;;;24.50;62.00;;;;;;4941241;28;87839;-22
2021/07/08 07:54:46;;;;;;;12.27;3.42;;;24.60;62.00;;;;;;4929021;28;88420;-21
2021/07/08 07:57:16;;;;;;;13.20;3.53;;;24.60;62.00;;;;;;4928388;28;88141;-14
2021/07/08 07:59:50;;;;;;;11.88;3.78;;;24.60;62.00;;;;;;4926314;28;88070;-17
2021/07/08 08:02:32;;;;;;;12.82;3.00;;;24.70;61.80;;;;;;4927851;28;88455;-21
2021/07/08 08:10:20;;;;;;;27.52;3.78;;;24.90;61.40;;;;;;4925760;28;88057;-15
2021/07/08 08:12:48;;;;;;;11.73;3.80;;;25.00;61.30;;;;;;4938920;28;89361;-17
2021/07/08 08:15:17;;;;;;;9.52;3.40;;;25.10;61.10;;;;;;4926762;28;88021;-17
2021/07/08 08:17:43;;;;;;;16.02;3.20;;;25.10;60.80;;;;;;4908784;28;88298;-19
2021/07/08 08:20:11;;;;;;;8.38;3.63;;;25.20;60.70;;;;;;4928699;28;88104;-14
2021/07/08 08:22:38;;;;;;;17.45;3.75;;;25.30;60.60;;;;;;4927337;28;88353;-18
2021/07/08 08:25:05;;;;;;;9.38;3.47;;;25.30;60.50;;;;;;4924757;28;88900;-14
2021/07/08 08:27:31;;;;;;;10.73;4.07;;;25.30;60.20;;;;;;4927094;28;88915;-20
2021/07/08 08:29:57;;;;;;;7.43;3.42;;;25.30;60.00;;;;;;4926772;28;88351;-12
2021/07/08 08:32:22;;;;;;;11.95;4.25;;;25.30;59.90;;;;;;4927536;28;88458;-19
2021/07/08 08:34:48;;;;;;;12.20;3.83;;;25.30;59.80;;;;;;4925824;28;88887;-18
2021/07/08 08:37:14;;;;;;;11.85;3.60;;;25.40;59.80;;;;;;4928160;28;88391;-18
2021/07/08 08:39:44;;;;;;;8.23;3.45;;;25.40;59.70;;;;;;4927685;28;88247;-21
2021/07/08 08:42:27;;;;;;;14.48;3.67;;;25.40;59.60;;;;;;4929901;28;88302;-13
2021/07/08 08:45:01;;;;;;;13.98;3.70;;;25.50;59.70;;;;;;4925195;28;88720;-20
2021/07/08 08:47:32;;;;;;;16.88;3.92;;;25.50;59.60;;;;;;4924996;28;87602;-17
2021/07/08 08:50:04;;;;;;;9.48;4.00;;;25.60;59.70;;;;;;4927738;28;87971;-19
2021/07/08 08:52:31;;;;;;;14.68;5.13;;;25.60;59.70;;;;;;4926777;28;90649;-15
2021/07/08 08:54:59;;;;;;;11.93;4.15;;;25.60;59.80;;;;;;4932245;28;88915;-19
2021/07/08 08:57:25;;;;;;;11.43;3.75;;;25.60;59.80;;;;;;4931709;28;87447;-14
2021/07/08 09:00:00;;;;;;;20.77;5.88;;;25.70;59.80;;;;;;4933416;28;87696;-16
2021/07/08 09:02:26;;;;;;;23.35;6.03;;;25.70;59.80;;;;;;4927130;28;88292;-15
2021/07/08 09:04:52;;;;;;;24.08;5.53;;;25.70;59.60;;;;;;4928116;28;88386;-20
2021/07/08 09:07:24;;;;;;;22.08;5.82;;;25.80;59.80;;;;;;4927068;28;87941;-17
2021/07/08 09:09:53;;;;;;;23.45;6.63;;;25.80;59.80;;;;;;4927409;28;87509;-21
2021/07/08 09:12:22;;;;;;;16.50;5.50;;;25.80;59.80;;;;;;4923312;28;91392;-16
2021/07/08 09:14:49;;;;;;;20.10;6.50;;;25.80;59.60;;;;;;4926909;28;87841;-19
2021/07/08 09:17:17;;;;;;;18.73;5.28;;;25.90;59.40;;;;;;4926755;28;89214;-16
2021/07/08 09:19:43;;;;;;;27.02;7.10;;;25.80;59.60;;;;;;4927367;28;87980;-23
2021/07/08 09:22:09;;;;;;;19.67;6.38;;;25.80;59.70;;;;;;4930313;28;89460;-20
2021/07/08 09:24:38;;;;;;;12.95;4.63;;;25.90;59.80;;;;;;4925487;28;89001;-14
2021/07/08 09:27:10;;;;;;;14.05;4.03;;;25.80;59.10;;;;;;4940591;28;88257;-14
2021/07/08 09:29:43;;;;;;;23.27;5.53;;;25.80;58.90;;;;;;4926772;28;90727;-14
2021/07/08 09:32:17;;;;;;;16.10;5.70;;;25.80;59.60;;;;;;4926598;28;90926;-22
2021/07/08 09:34:57;;;;;;;14.63;4.45;;;25.80;59.40;;;;;;4928250;28;87900;-15
2021/07/08 09:37:28;;;;;;;14.18;5.38;;;25.80;59.50;;;;;;4931980;28;87703;-14
2021/07/08 09:40:04;;;;;;;13.02;4.85;;;25.80;60.10;;;;;;4932210;28;88172;-16
2021/07/08 09:42:45;;;;;;;15.85;4.95;;;25.90;59.70;;;;;;4930243;28;90942;-15
2021/07/08 09:45:18;;;;;;;16.05;4.72;;;25.80;60.50;;;;;;4932013;28;88886;-14
2021/07/08 09:47:46;;;;;;;18.65;5.78;;;25.90;60.30;;;;;;4932072;28;87843;-15
2021/07/08 09:50:14;;;;;;;18.58;5.43;;;25.90;60.90;;;;;;4932412;28;88284;-17
2021/07/08 09:52:41;;;;;;;15.27;5.65;;;25.90;61.10;;;;;;4930297;28;91124;-15
2021/07/08 09:55:19;;;;;;;33.75;5.22;;;25.90;61.00;;;;;;4932751;28;88601;-16
2021/07/08 09:57:49;;;;;;;14.25;4.85;;;25.90;60.50;;;;;;4932370;28;87365;-13
2021/07/08 10:00:23;;;;;;;18.05;5.50;;;25.90;60.60;;;;;;4932402;28;87021;-14
2021/07/08 10:02:54;;;;;;;14.68;4.82;;;25.90;61.00;;;;;;4932697;28;88343;-18
2021/07/08 10:05:21;;;;;;;15.60;5.38;;;25.90;61.00;;;;;;4930875;28;91972;-16
2021/07/08 10:07:48;;;;;;;16.65;4.70;;;25.90;61.00;;;;;;4932210;28;89027;-11
2021/07/08 10:10:15;;;;;;;23.98;5.05;;;25.90;60.80;;;;;;4932443;28;87153;-18
2021/07/08 10:12:42;;;;;;;11.57;4.82;;;25.90;60.80;;;;;;4932431;28;88079;-19
2021/07/08 10:15:12;;;;;;;19.30;5.05;;;25.90;60.90;;;;;;4933431;28;87783;-12
2021/07/08 10:17:39;;;;;;;13.98;4.85;;;25.90;60.80;;;;;;4932696;28;87372;-19
2021/07/08 10:20:13;;;;;;;10.23;4.57;;;25.90;60.60;;;;;;4932158;28;88608;-14
2021/07/08 10:22:39;;;;;;;11.30;4.10;;;25.90;60.60;;;;;;4931316;28;91909;-16
2021/07/08 10:25:07;;;;;;;12.38;4.25;;;25.90;60.20;;;;;;4932795;28;87199;-13
2021/07/08 10:27:37;;;;;;;11.23;4.05;;;25.90;60.40;;;;;;4931724;28;87896;-18
2021/07/08 10:30:04;;;;;;;12.75;4.53;;;25.90;60.40;;;;;;4931716;28;87807;-16
2021/07/08 10:32:30;;;;;;;12.05;4.57;;;26.00;60.20;;;;;;4930867;28;90306;-12
2021/07/08 10:34:56;;;;;;;9.30;3.80;;;26.00;60.20;;;;;;4932102;28;88622;-15
2021/07/08 10:37:29;;;;;;;14.40;4.15;;;25.90;60.10;;;;;;4932309;28;87394;-20
2021/07/08 10:39:59;;;;;;;12.90;4.47;;;25.90;60.10;;;;;;4932598;28;88014;-14
2021/07/08 10:42:49;;;;;;;18.13;5.10;;;25.90;60.00;;;;;;4931950;28;89486;-14
2021/07/08 10:45:26;;;;;;;14.85;4.40;;;25.90;59.90;;;;;;4931994;28;88371;-15
2021/07/08 10:48:13;;;;;;;13.52;4.10;;;26.00;60.70;;;;;;4932258;28;88291;-20
2021/07/08 10:50:42;;;;;;;12.85;4.60;;;26.00;60.00;;;;;;4931729;28;87305;-12
2021/07/08 10:53:15;;;;;;;12.40;4.32;;;26.00;60.00;;;;;;4933022;28;88355;-13
2021/07/08 10:55:43;;;;;;;10.63;4.50;;;26.00;60.00;;;;;;4933150;28;87735;-18
2021/07/08 10:58:48;;;;;;;12.32;4.22;;;26.00;60.00;;;;;;4932637;28;88613;-15
2021/07/08 11:01:27;;;;;;;13.20;4.38;;;26.00;60.20;;;;;;4931087;28;89242;-17
2021/07/08 11:03:54;;;;;;;8.20;3.58;;;26.00;60.10;;;;;;4931872;28;87746;-15
2021/07/08 11:06:34;;;;;;;8.35;3.40;;;26.00;60.10;;;;;;4932052;28;87977;-12
2021/07/08 11:09:17;;;;;;;10.50;3.15;;;26.00;58.60;;;;;;4932200;28;88215;-21
2021/07/08 11:11:46;;;;;;;11.73;4.03;;;26.00;58.40;;;;;;4932631;28;87772;-15
2021/07/08 11:14:14;;;;;;;12.80;4.63;;;26.00;58.80;;;;;;4931605;28;89522;-15
2021/07/08 11:16:53;;;;;;;12.32;3.95;;;26.00;59.50;;;;;;4945248;28;88696;-14
2021/07/08 11:19:19;;;;;;;12.43;4.30;;;26.00;59.50;;;;;;4952731;28;87739;-13
2021/07/08 11:21:52;;;;;;;11.10;4.28;;;25.90;59.60;;;;;;4952751;28;88158;-12
2021/07/08 11:24:18;;;;;;;;;;;25.90;59.70;;;;;;4952701;28;88943;-12
2021/07/08 11:27:15;;;;;;;7.93;3.63;;;25.90;59.80;;;;;;4953314;28;89151;-12
2021/07/08 11:29:45;;;;;;;10.18;4.25;;;25.90;59.90;;;;;;4949907;28;87554;-19
2021/07/08 11:32:43;;;;;;;10.52;4.40;;;25.80;59.90;;;;;;4938714;28;87491;-13
2021/07/08 11:35:18;;;;;;;10.57;4.00;;;25.80;60.00;;;;;;4930293;28;91385;-12
2021/07/08 11:37:54;;;;;;;9.27;4.05;;;25.70;60.10;;;;;;4932812;28;88210;-15
2021/07/08 11:40:22;;;;;;;11.43;4.30;;;25.60;60.10;;;;;;4940677;28;87653;-14
2021/07/08 11:42:49;;;;;;;8.65;4.80;;;25.60;60.20;;;;;;4932988;28;86326;-18
2021/07/08 11:45:23;;;;;;;7.25;3.90;;;25.60;60.30;;;;;;4932018;28;88119;-12
2021/07/08 11:50:28;;;;;;;8.25;4.40;;;25.50;60.30;;;;;;4909025;28;88130;-23
2021/07/08 11:53:14;;;;;;;7.38;3.83;;;25.50;60.90;;;;;;4911643;28;87560;-19
2021/07/08 11:55:57;;;;;;;8.60;4.40;;;25.40;60.30;;;;;;4911525;28;88047;-21
2021/07/08 11:58:29;;;;;;;8.43;4.30;;;25.40;60.30;;;;;;4912362;28;88521;-27
2021/07/08 12:00:57;;;;;;;5.88;3.67;;;25.40;60.40;;;;;;4912261;28;87566;-19
2021/07/08 12:03:31;;;;;;;8.07;3.53;;;25.30;60.20;;;;;;4912336;28;87901;-18
2021/07/08 12:06:08;;;;;;;9.70;3.55;;;25.30;60.20;;;;;;4912667;28;88101;-29
2021/07/08 12:08:34;;;;;;;5.43;3.47;;;25.30;60.20;;;;;;4912458;28;87996;-15
2021/07/08 12:11:10;;;;;;;6.15;3.83;;;25.30;60.20;;;;;;4912624;28;87746;-14
2021/07/08 12:13:47;;;;;;;8.85;3.53;;;25.30;60.20;;;;;;4911791;28;88325;-32
2021/07/08 12:16:13;;;;;;;6.75;3.50;;;25.30;60.80;;;;;;4911324;28;89258;-13
2021/07/08 12:18:47;;;;;;;7.60;3.92;;;25.30;60.20;;;;;;4910547;28;89824;-16
2021/07/08 12:21:28;;;;;;;10.20;3.92;;;25.30;60.20;;;;;;4912597;28;87518;-16
2021/07/08 12:23:57;;;;;;;6.53;3.78;;;25.30;60.20;;;;;;4912317;28;87712;-32
2021/07/08 12:26:27;;;;;;;6.35;3.45;;;25.20;60.20;;;;;;4912356;28;89421;-18
2021/07/08 12:29:25;;;;;;;7.03;3.83;;;25.30;60.20;;;;;;4911100;28;88677;-23
2021/07/08 12:31:58;;;;;;;7.45;3.92;;;25.20;60.70;;;;;;4906672;28;87232;-15
2021/07/08 12:34:35;;;;;;;4.97;3.63;;;25.20;60.30;;;;;;4911126;28;89933;-30
2021/07/08 12:37:20;;;;;;;7.55;3.88;;;25.20;60.40;;;;;;4911578;28;88110;-18
2021/07/08 12:39:56;;;;;;;7.53;3.97;;;25.20;60.60;;;;;;4912490;28;87964;-24
2021/07/08 12:42:24;;;;;;;6.70;3.83;;;25.20;60.80;;;;;;4912320;28;88478;-16
2021/07/08 12:44:51;;;;;;;8.52;3.95;;;25.20;60.90;;;;;;4912344;28;87851;-29
2021/07/08 12:47:18;;;;;;;8.13;3.65;;;25.20;61.30;;;;;;4913114;28;88271;-31
2021/07/08 12:49:49;;;;;;;10.13;4.35;;;25.20;61.50;;;;;;4912661;28;88067;-27
2021/07/08 12:52:16;;;;;;;9.43;4.28;;;25.20;61.60;;;;;;4912107;28;87372;-20
2021/07/08 12:54:42;;;;;;;7.03;3.70;;;25.10;61.50;;;;;;4909390;28;90127;-20
2021/07/08 12:57:10;;;;;;;13.70;4.00;;;25.10;61.60;;;;;;4909227;28;91877;-25